Time;durP1;ratioP1;P1;durP2;ratioP2;P2;SDS_P1;SDS_P2;PMS_P1;PMS_P2;Temp;Humidity;BMP_temperature;BMP_pressure;BME280_temperature;BME280_humidity;BME280_pressure;Samples;Min_cycle;Max_cycle;Signal;HPM_P1;HPM_P2
2023/08/02 00:01:55;;;;;;;6.13;0.60;;;15.50;99.90;;;;;;5049704;28;20052;-64
2023/08/02 00:04:20;;;;;;;3.78;0.55;;;15.70;99.90;;;;;;5051363;28;20053;-63
2023/08/02 00:06:46;;;;;;;3.33;0.50;;;15.30;99.90;;;;;;5017158;28;20101;-64
2023/08/02 00:09:12;;;;;;;2.90;0.52;;;15.30;99.90;;;;;;5012495;28;20077;-63
2023/08/02 00:11:38;;;;;;;3.80;0.63;;;15.50;99.90;;;;;;5016572;28;20049;-63
2023/08/02 00:14:03;;;;;;;3.33;0.50;;;15.30;99.90;;;;;;5013975;28;20133;-63
2023/08/02 00:16:29;;;;;;;3.13;0.50;;;15.60;99.90;;;;;;5048364;28;20808;-63
2023/08/02 00:18:55;;;;;;;4.90;0.60;;;15.30;99.90;;;;;;5026587;28;20439;-64
2023/08/02 00:21:21;;;;;;;2.63;0.70;;;15.30;99.90;;;;;;5050042;28;20646;-64
2023/08/02 00:23:46;;;;;;;7.47;0.85;;;15.20;99.90;;;;;;5049960;28;20041;-64
2023/08/02 00:26:12;;;;;;;3.58;0.85;;;15.50;99.90;;;;;;5032656;28;20053;-64
2023/08/02 00:28:38;;;;;;;4.63;0.80;;;15.20;99.90;;;;;;4981517;28;20132;-65
2023/08/02 00:31:03;;;;;;;3.58;0.80;;;15.20;99.90;;;;;;5050151;28;20593;-64
2023/08/02 00:33:29;;;;;;;4.70;1.30;;;15.50;99.90;;;;;;5032127;28;20679;-64
2023/08/02 00:35:54;;;;;;;3.42;0.80;;;15.40;99.90;;;;;;5032670;28;20175;-64
2023/08/02 00:38:21;;;;;;;6.60;1.10;;;15.20;99.90;;;;;;5013666;28;20037;-63
2023/08/02 00:40:48;;;;;;;5.95;1.10;;;15.30;99.90;;;;;;5033834;28;20862;-64
2023/08/02 00:43:14;;;;;;;6.53;1.15;;;15.20;99.90;;;;;;5049334;28;20119;-63
2023/08/02 00:45:40;;;;;;;7.03;1.08;;;15.40;99.90;;;;;;5014183;28;20074;-64
2023/08/02 00:48:06;;;;;;;6.43;0.90;;;15.50;99.90;;;;;;5048438;28;20045;-64
2023/08/02 00:50:34;;;;;;;3.45;0.88;;;15.20;99.90;;;;;;5050596;28;20114;-65
2023/08/02 00:53:00;;;;;;;4.47;0.90;;;15.50;99.90;;;;;;5052738;28;20045;-63
2023/08/02 00:55:26;;;;;;;5.88;1.02;;;15.20;99.90;;;;;;5048366;28;20040;-64
2023/08/02 00:57:52;;;;;;;4.70;1.10;;;15.20;99.90;;;;;;5049055;28;20304;-64
2023/08/02 01:00:18;;;;;;;5.65;0.80;;;15.30;99.90;;;;;;5015060;28;20282;-64
2023/08/02 01:02:44;;;;;;;5.00;1.00;;;15.50;99.90;;;;;;5034684;28;20045;-64
2023/08/02 01:05:09;;;;;;;5.78;0.90;;;15.60;99.90;;;;;;5048376;28;20315;-65
2023/08/02 01:07:49;;;;;;;5.80;0.80;;;15.50;99.90;;;;;;5050454;28;20466;-64
2023/08/02 01:10:39;;;;;;;3.10;0.50;;;15.30;99.90;;;;;;5050497;28;20077;-63
2023/08/02 01:13:06;;;;;;;5.78;0.70;;;15.30;99.90;;;;;;5048724;28;20044;-64
2023/08/02 01:15:34;;;;;;;4.53;0.60;;;15.30;99.90;;;;;;5014887;28;20085;-64
2023/08/02 01:18:01;;;;;;;1.85;0.60;;;15.20;99.90;;;;;;5052035;28;20120;-64
2023/08/02 01:20:27;;;;;;;5.47;0.80;;;15.10;99.90;;;;;;5017759;28;20121;-63
2023/08/02 01:22:53;;;;;;;3.00;0.80;;;15.20;99.90;;;;;;5036698;28;20335;-64
2023/08/02 01:25:19;;;;;;;4.22;0.93;;;15.60;99.90;;;;;;5037676;28;20044;-65
2023/08/02 01:27:50;;;;;;;4.22;0.70;;;15.20;99.90;;;;;;5051778;28;20048;-64
2023/08/02 01:30:20;;;;;;;6.20;1.00;;;15.30;99.90;;;;;;5056960;28;20471;-64
2023/08/02 01:32:46;;;;;;;3.60;1.20;;;15.40;99.90;;;;;;5037126;28;20045;-64
2023/08/02 01:35:12;;;;;;;6.75;1.17;;;15.40;99.90;;;;;;5016446;28;20037;-64
2023/08/02 01:37:40;;;;;;;3.53;1.23;;;15.30;99.90;;;;;;5036863;28;20499;-64
2023/08/02 01:40:06;;;;;;;4.93;1.73;;;15.50;99.90;;;;;;5052990;28;20040;-64
2023/08/02 01:42:32;;;;;;;5.38;1.90;;;15.50;99.90;;;;;;5053779;28;20045;-64
2023/08/02 01:44:58;;;;;;;5.20;1.80;;;15.40;99.90;;;;;;5016409;28;20188;-64
2023/08/02 01:47:23;;;;;;;5.07;2.10;;;15.60;99.90;;;;;;5052052;28;20037;-64
2023/08/02 01:49:49;;;;;;;5.93;1.85;;;15.50;99.90;;;;;;5049670;28;20029;-63
2023/08/02 01:52:15;;;;;;;7.05;2.47;;;15.40;99.90;;;;;;5036721;28;20195;-64
2023/08/02 01:54:40;;;;;;;8.63;2.20;;;15.40;99.90;;;;;;5054531;28;20444;-63
2023/08/02 01:57:06;;;;;;;5.47;2.10;;;15.60;99.90;;;;;;5049769;28;20579;-65
2023/08/02 01:59:32;;;;;;;6.65;2.08;;;15.20;99.90;;;;;;5053916;28;20068;-64
2023/08/02 02:01:58;;;;;;;7.72;2.17;;;15.60;99.90;;;;;;5017481;28;20628;-64
2023/08/02 02:04:24;;;;;;;11.25;2.60;;;15.60;99.90;;;;;;5013647;28;20504;-63
2023/08/02 02:06:50;;;;;;;7.68;2.53;;;15.60;99.90;;;;;;5053508;28;20051;-63
2023/08/02 02:09:15;;;;;;;8.95;2.53;;;15.60;99.90;;;;;;5051878;28;20038;-64
2023/08/02 02:11:41;;;;;;;13.57;2.42;;;15.50;99.90;;;;;;5016364;28;20136;-64
2023/08/02 02:14:07;;;;;;;9.02;2.90;;;15.50;99.90;;;;;;5036284;28;20045;-64
2023/08/02 02:16:32;;;;;;;8.20;2.60;;;15.20;99.90;;;;;;5051545;28;20037;-63
2023/08/02 02:18:58;;;;;;;7.82;2.75;;;15.10;99.90;;;;;;5034130;28;20044;-63
2023/08/02 02:21:24;;;;;;;6.20;2.45;;;15.50;99.90;;;;;;5015041;28;20464;-64
2023/08/02 02:23:49;;;;;;;13.02;3.17;;;15.60;99.90;;;;;;5036869;28;20033;-64
2023/08/02 02:26:15;;;;;;;8.13;2.90;;;15.20;99.90;;;;;;5051787;28;20033;-64
2023/08/02 02:28:41;;;;;;;6.88;3.30;;;15.50;99.90;;;;;;5049310;28;20087;-63
2023/08/02 02:31:06;;;;;;;11.18;3.65;;;15.20;99.90;;;;;;5052526;28;20100;-64
2023/08/02 02:33:32;;;;;;;9.02;3.28;;;15.50;99.90;;;;;;5051021;28;20041;-64
2023/08/02 02:35:58;;;;;;;11.23;3.83;;;15.30;99.90;;;;;;5033814;28;20101;-63
2023/08/02 02:38:23;;;;;;;10.85;3.67;;;15.50;99.90;;;;;;4999410;28;20306;-63
2023/08/02 02:40:49;;;;;;;9.52;3.92;;;15.40;99.90;;;;;;5035904;28;20816;-63
2023/08/02 02:43:15;;;;;;;10.45;4.10;;;15.10;99.90;;;;;;5034241;28;20047;-63
2023/08/02 02:45:40;;;;;;;10.45;4.00;;;15.40;99.90;;;;;;5050591;28;20046;-63
2023/08/02 02:48:06;;;;;;;12.20;4.30;;;15.30;99.90;;;;;;5033749;28;20124;-63
2023/08/02 02:50:31;;;;;;;10.93;4.03;;;15.40;99.90;;;;;;5051854;28;20281;-64
2023/08/02 02:52:58;;;;;;;8.65;4.07;;;15.30;99.90;;;;;;5034987;28;20044;-64
2023/08/02 02:55:24;;;;;;;10.82;4.40;;;15.40;99.90;;;;;;5050617;28;20049;-64
2023/08/02 02:57:50;;;;;;;8.68;4.32;;;15.50;99.90;;;;;;5052918;28;20029;-64
2023/08/02 03:00:19;;;;;;;9.18;4.05;;;15.40;99.90;;;;;;5051788;28;20488;-64
2023/08/02 03:02:45;;;;;;;8.70;4.72;;;15.40;99.90;;;;;;5036420;28;20242;-64
2023/08/02 03:05:10;;;;;;;14.05;4.70;;;15.40;99.90;;;;;;5035557;28;20615;-64
2023/08/02 03:07:36;;;;;;;9.13;4.72;;;15.10;99.90;;;;;;5033505;28;20729;-64
2023/08/02 03:10:02;;;;;;;13.43;4.93;;;15.30;99.90;;;;;;4999716;28;20428;-63
2023/08/02 03:12:27;;;;;;;10.90;4.55;;;15.00;99.90;;;;;;5053281;28;20316;-64
2023/08/02 03:14:53;;;;;;;7.80;4.88;;;15.20;99.90;;;;;;5015772;28;20080;-64
2023/08/02 03:17:18;;;;;;;15.93;5.18;;;15.00;99.90;;;;;;5051072;28;20423;-64
2023/08/02 03:19:44;;;;;;;12.27;5.22;;;15.00;99.90;;;;;;5034424;28;20731;-63
2023/08/02 03:22:10;;;;;;;12.38;4.95;;;15.00;99.90;;;;;;5052940;28;20037;-64
2023/08/02 03:24:35;;;;;;;12.43;5.07;;;14.90;99.90;;;;;;5049899;28;20078;-64
2023/08/02 03:27:01;;;;;;;9.50;4.85;;;14.90;99.90;;;;;;5044683;28;20069;-64
2023/08/02 03:29:27;;;;;;;10.93;5.47;;;15.00;99.90;;;;;;4998050;28;20056;-64
2023/08/02 03:31:52;;;;;;;10.98;4.80;;;15.30;99.90;;;;;;5033901;28;20208;-64
2023/08/02 03:34:18;;;;;;;12.88;5.75;;;14.90;99.90;;;;;;5033695;28;20045;-64
2023/08/02 03:36:44;;;;;;;12.27;4.93;;;15.30;99.90;;;;;;5050418;28;20057;-64
2023/08/02 03:39:10;;;;;;;11.35;5.40;;;15.30;99.90;;;;;;5052879;28;20033;-64
2023/08/02 03:41:36;;;;;;;12.23;5.40;;;15.30;99.90;;;;;;5050935;28;20327;-64
2023/08/02 03:44:02;;;;;;;16.05;5.32;;;15.10;99.90;;;;;;5017698;28;20444;-64
2023/08/02 03:46:28;;;;;;;11.82;4.93;;;15.00;99.90;;;;;;5030126;28;20136;-64
2023/08/02 03:48:54;;;;;;;9.88;4.75;;;15.20;99.90;;;;;;5032325;28;20052;-64
2023/08/02 03:51:19;;;;;;;10.07;4.60;;;14.90;99.90;;;;;;5051450;28;20531;-65
2023/08/02 03:53:45;;;;;;;9.45;4.78;;;15.20;99.90;;;;;;5032391;28;20141;-64
2023/08/02 03:56:11;;;;;;;11.43;4.85;;;14.90;99.90;;;;;;5032328;28;20037;-64
2023/08/02 03:58:37;;;;;;;12.80;4.68;;;15.00;99.90;;;;;;5051808;28;20475;-64
2023/08/02 04:01:02;;;;;;;15.73;5.00;;;15.00;99.90;;;;;;4981869;28;20044;-65
2023/08/02 04:03:28;;;;;;;16.63;4.57;;;15.00;99.90;;;;;;5049725;28;20557;-64
2023/08/02 04:05:53;;;;;;;12.18;4.60;;;15.00;99.90;;;;;;5049622;28;20499;-64
2023/08/02 04:08:19;;;;;;;17.25;5.05;;;15.10;99.90;;;;;;5053042;28;20053;-65
2023/08/02 04:10:45;;;;;;;12.38;4.35;;;15.30;99.90;;;;;;5049899;28;20060;-65
2023/08/02 04:13:11;;;;;;;14.93;4.25;;;15.10;99.90;;;;;;5032413;28;20415;-64
2023/08/02 04:15:37;;;;;;;14.30;4.68;;;15.20;99.90;;;;;;5032512;28;20087;-64
2023/08/02 04:18:02;;;;;;;15.70;4.95;;;15.10;99.90;;;;;;5050569;28;20552;-63
2023/08/02 04:20:29;;;;;;;12.82;4.05;;;15.40;99.90;;;;;;4999564;28;20124;-64
2023/08/02 04:22:55;;;;;;;12.05;4.25;;;15.20;99.90;;;;;;5015751;28;20041;-64
2023/08/02 04:25:21;;;;;;;14.70;4.55;;;15.20;99.90;;;;;;5049325;28;20071;-64
2023/08/02 04:27:46;;;;;;;12.15;4.72;;;15.00;99.90;;;;;;5032797;28;20048;-64
2023/08/02 04:30:12;;;;;;;15.40;5.43;;;15.40;99.90;;;;;;5049253;28;20136;-65
2023/08/02 04:32:38;;;;;;;12.57;5.18;;;15.00;99.90;;;;;;5051610;28;21362;-64
2023/08/02 04:35:04;;;;;;;18.60;5.72;;;15.50;99.90;;;;;;5030661;28;20653;-65
2023/08/02 04:37:30;;;;;;;20.40;6.93;;;15.00;99.90;;;;;;5048082;28;20103;-63
2023/08/02 04:39:55;;;;;;;15.50;6.32;;;15.20;99.90;;;;;;5046527;28;20049;-64
2023/08/02 04:42:21;;;;;;;18.33;6.28;;;15.10;99.90;;;;;;5016259;28;20533;-64
2023/08/02 04:44:46;;;;;;;15.40;6.32;;;15.10;99.90;;;;;;5050328;28;20778;-64
2023/08/02 04:47:12;;;;;;;16.58;5.93;;;15.10;99.90;;;;;;5052726;28;20048;-63
2023/08/02 04:49:38;;;;;;;14.10;6.38;;;15.20;99.90;;;;;;5035227;28;20041;-63
2023/08/02 04:52:04;;;;;;;16.35;6.05;;;15.30;99.90;;;;;;5035610;28;20037;-63
2023/08/02 04:54:30;;;;;;;20.77;6.63;;;15.60;99.90;;;;;;5039031;28;20521;-64
2023/08/02 04:56:55;;;;;;;15.68;6.25;;;15.60;99.90;;;;;;5053314;28;20040;-63
2023/08/02 04:59:23;;;;;;;17.67;6.10;;;15.40;99.90;;;;;;5054096;28;20037;-64
2023/08/02 05:01:48;;;;;;;19.00;6.20;;;15.20;99.90;;;;;;5054572;28;20049;-63
2023/08/02 05:04:14;;;;;;;19.27;6.38;;;15.60;99.90;;;;;;5035244;28;20532;-63
2023/08/02 05:06:40;;;;;;;19.38;6.47;;;15.20;99.90;;;;;;5018649;28;20155;-63
2023/08/02 05:09:06;;;;;;;22.25;6.57;;;15.50;99.90;;;;;;5026057;28;20144;-65
2023/08/02 05:11:32;;;;;;;19.58;6.43;;;15.60;99.90;;;;;;5018211;28;20108;-62
2023/08/02 05:13:58;;;;;;;18.73;6.15;;;15.50;99.90;;;;;;5021937;28;20033;-63
2023/08/02 05:16:25;;;;;;;18.08;6.88;;;15.60;99.90;;;;;;5000096;28;20045;-63
2023/08/02 05:18:51;;;;;;;19.58;6.85;;;15.60;99.90;;;;;;5052872;28;20036;-63
2023/08/02 05:21:18;;;;;;;18.15;7.15;;;15.60;99.90;;;;;;5053940;28;20435;-64
2023/08/02 05:23:44;;;;;;;21.75;7.15;;;15.50;99.90;;;;;;5034843;28;20277;-64
2023/08/02 05:26:10;;;;;;;22.58;6.90;;;15.40;99.90;;;;;;5020732;28;20158;-64
2023/08/02 05:28:37;;;;;;;17.23;7.18;;;15.70;99.90;;;;;;5050624;28;20140;-64
2023/08/02 05:31:02;;;;;;;21.00;7.55;;;15.70;99.90;;;;;;5021814;28;20566;-64
2023/08/02 05:33:28;;;;;;;17.67;6.90;;;15.40;99.90;;;;;;5018839;28;20270;-64
2023/08/02 05:35:54;;;;;;;23.33;7.28;;;15.70;99.90;;;;;;5021290;28;20411;-64
2023/08/02 05:38:20;;;;;;;18.33;6.63;;;15.50;99.90;;;;;;5018716;28;20099;-63
2023/08/02 05:40:46;;;;;;;16.85;7.00;;;15.50;99.90;;;;;;5020511;28;20034;-64
2023/08/02 05:43:12;;;;;;;22.05;6.90;;;15.70;99.90;;;;;;5018192;28;20056;-64
2023/08/02 05:45:37;;;;;;;17.10;6.60;;;15.50;99.90;;;;;;5049697;28;20119;-63
2023/08/02 05:48:03;;;;;;;20.70;6.95;;;15.70;99.90;;;;;;5034044;28;20083;-64
2023/08/02 05:50:29;;;;;;;16.65;6.75;;;15.70;99.90;;;;;;4999478;28;20128;-64
2023/08/02 05:52:55;;;;;;;15.70;6.45;;;15.50;99.90;;;;;;5037685;28;20523;-64
2023/08/02 05:55:21;;;;;;;17.08;7.38;;;15.50;99.90;;;;;;5016847;28;20045;-64
2023/08/02 05:57:49;;;;;;;14.23;6.60;;;15.80;99.90;;;;;;5053879;28;20049;-63
2023/08/02 06:00:16;;;;;;;13.73;6.45;;;15.80;99.90;;;;;;5001174;28;20188;-63
2023/08/02 06:02:42;;;;;;;15.23;6.75;;;15.90;99.90;;;;;;5016519;28;20171;-63
2023/08/02 06:05:08;;;;;;;13.90;6.10;;;15.90;99.90;;;;;;5049429;28;20353;-63
2023/08/02 06:07:34;;;;;;;12.90;5.82;;;15.90;99.90;;;;;;5051820;28;20414;-63
2023/08/02 06:10:00;;;;;;;15.80;6.20;;;16.00;99.90;;;;;;5053757;28;20037;-63
2023/08/02 06:12:25;;;;;;;13.85;5.90;;;16.20;99.90;;;;;;5050479;28;20049;-64
2023/08/02 06:14:51;;;;;;;16.73;6.43;;;16.40;99.90;;;;;;5018350;28;20396;-64
2023/08/02 06:17:17;;;;;;;14.65;5.97;;;16.40;99.90;;;;;;5053262;28;20094;-64
2023/08/02 06:19:43;;;;;;;14.05;5.68;;;16.40;99.90;;;;;;5050761;28;20155;-64
2023/08/02 06:22:09;;;;;;;14.05;6.05;;;16.40;99.90;;;;;;5050951;28;20041;-63
2023/08/02 06:24:34;;;;;;;13.35;6.07;;;16.60;99.90;;;;;;5014588;28;20075;-64
2023/08/02 06:27:00;;;;;;;15.02;5.82;;;16.30;99.90;;;;;;5029591;28;20454;-64
2023/08/02 06:29:26;;;;;;;17.33;6.03;;;16.40;99.90;;;;;;5004285;28;20474;-64
2023/08/02 06:31:52;;;;;;;15.10;5.90;;;16.30;99.90;;;;;;5046233;28;20652;-64
2023/08/02 06:34:17;;;;;;;12.55;5.50;;;16.50;99.90;;;;;;5046093;28;20857;-64
2023/08/02 06:36:43;;;;;;;11.73;6.20;;;16.60;99.90;;;;;;5046091;28;20041;-65
2023/08/02 06:39:09;;;;;;;11.88;5.45;;;16.40;99.90;;;;;;5046051;28;20037;-64
2023/08/02 06:41:35;;;;;;;14.95;6.55;;;16.70;99.90;;;;;;5033209;28;20897;-64
2023/08/02 06:44:00;;;;;;;16.52;6.85;;;16.60;99.90;;;;;;5049765;28;20045;-65
2023/08/02 06:46:26;;;;;;;15.77;5.93;;;16.40;99.90;;;;;;5048282;28;20541;-64
2023/08/02 06:48:52;;;;;;;13.20;6.03;;;16.60;99.90;;;;;;5002335;28;20049;-64
2023/08/02 06:51:17;;;;;;;16.33;5.85;;;16.50;99.90;;;;;;5032330;28;20814;-64
2023/08/02 06:53:43;;;;;;;14.95;6.68;;;16.60;99.90;;;;;;5047630;28;20795;-64
2023/08/02 06:56:16;;;;;;;13.73;6.40;;;16.80;99.90;;;;;;5030516;28;20106;-63
2023/08/02 06:58:43;;;;;;;11.82;6.03;;;16.80;99.90;;;;;;5019514;28;20438;-64
2023/08/02 07:01:20;;;;;;;17.88;5.93;;;16.90;99.90;;;;;;5051446;28;20605;-64
2023/08/02 07:03:46;;;;;;;14.10;6.30;;;16.80;99.90;;;;;;5047620;28;20124;-64
2023/08/02 07:06:19;;;;;;;13.10;5.85;;;16.90;99.90;;;;;;5029763;28;20156;-64
2023/08/02 07:08:46;;;;;;;9.32;5.47;;;16.80;99.90;;;;;;5048393;28;20484;-64
2023/08/02 07:11:12;;;;;;;12.70;5.88;;;16.90;99.90;;;;;;5028841;28;20128;-64
2023/08/02 07:13:44;;;;;;;12.30;6.07;;;16.80;99.90;;;;;;5044996;28;20053;-64
2023/08/02 07:16:09;;;;;;;13.20;6.70;;;17.20;99.90;;;;;;5055146;28;20100;-64
2023/08/02 07:18:35;;;;;;;13.52;5.95;;;17.00;99.90;;;;;;5044755;28;20049;-65
2023/08/02 07:21:08;;;;;;;13.95;5.32;;;17.20;99.90;;;;;;5013496;28;20048;-64
2023/08/02 07:23:35;;;;;;;11.02;5.63;;;17.10;99.90;;;;;;5063801;28;20045;-63
2023/08/02 07:26:01;;;;;;;11.48;5.25;;;17.40;99.90;;;;;;5063921;28;20076;-65
2023/08/02 07:28:26;;;;;;;10.98;4.97;;;17.30;99.90;;;;;;5016805;28;20768;-63
2023/08/02 07:30:52;;;;;;;9.50;4.55;;;17.40;99.90;;;;;;5030435;28;20106;-64
2023/08/02 07:33:18;;;;;;;12.00;4.80;;;17.60;99.90;;;;;;5030577;28;20053;-64
2023/08/02 07:35:46;;;;;;;10.35;4.55;;;17.60;99.90;;;;;;5044947;28;20056;-64
2023/08/02 07:38:14;;;;;;;9.85;4.50;;;17.40;99.90;;;;;;5063622;28;20088;-64
2023/08/02 07:40:42;;;;;;;14.43;4.80;;;17.30;99.90;;;;;;5063338;28;20526;-64
2023/08/02 07:43:09;;;;;;;12.55;4.35;;;17.40;99.90;;;;;;5064095;28;20044;-63
2023/08/02 07:45:34;;;;;;;11.07;4.72;;;17.30;99.90;;;;;;5063901;28;20076;-63
2023/08/02 07:48:00;;;;;;;8.88;4.60;;;17.20;99.90;;;;;;5027610;28;20475;-63
2023/08/02 07:50:26;;;;;;;11.68;4.25;;;17.20;99.90;;;;;;5028750;28;20084;-63
2023/08/02 07:52:51;;;;;;;11.90;4.50;;;17.10;99.90;;;;;;5044209;28;20096;-64
2023/08/02 07:55:18;;;;;;;11.32;4.97;;;17.00;99.90;;;;;;5028358;28;21003;-64
2023/08/02 07:57:44;;;;;;;10.40;4.25;;;17.20;99.90;;;;;;5011533;28;20116;-64
2023/08/02 08:00:10;;;;;;;13.75;5.22;;;17.10;99.90;;;;;;5063618;28;20113;-64
2023/08/02 08:02:36;;;;;;;12.07;4.47;;;17.10;99.90;;;;;;5059738;28;20448;-64
2023/08/02 08:05:02;;;;;;;14.45;5.03;;;17.00;99.90;;;;;;5055370;28;20048;-64
2023/08/02 08:07:27;;;;;;;13.30;5.15;;;17.10;99.90;;;;;;5027737;28;20296;-64
2023/08/02 08:09:53;;;;;;;17.05;5.63;;;17.30;99.90;;;;;;5027897;28;20527;-64
2023/08/02 08:12:19;;;;;;;12.13;4.38;;;17.10;99.90;;;;;;5029329;28;20040;-64
2023/08/02 08:14:44;;;;;;;15.45;4.50;;;17.10;99.90;;;;;;5030740;28;20052;-64
2023/08/02 08:17:10;;;;;;;13.10;4.25;;;17.20;99.90;;;;;;5000375;28;20049;-64
2023/08/02 08:19:36;;;;;;;12.55;4.40;;;17.20;99.90;;;;;;5044393;28;20342;-64
2023/08/02 08:22:01;;;;;;;9.35;3.47;;;17.00;99.90;;;;;;5051474;28;20051;-64
2023/08/02 08:24:27;;;;;;;11.07;3.25;;;17.10;99.90;;;;;;5061903;28;20052;-64
2023/08/02 08:26:55;;;;;;;7.28;2.70;;;17.10;99.90;;;;;;5012690;28;20044;-64
2023/08/02 08:29:21;;;;;;;8.25;2.75;;;17.10;99.90;;;;;;5049512;28;20258;-64
2023/08/02 08:31:46;;;;;;;11.75;2.90;;;17.00;99.90;;;;;;5028288;28;20045;-64
2023/08/02 08:34:13;;;;;;;10.85;3.20;;;17.00;99.90;;;;;;5044875;28;20049;-64
2023/08/02 08:36:39;;;;;;;10.32;3.10;;;17.00;99.90;;;;;;5010289;28;20104;-65
2023/08/02 08:39:05;;;;;;;8.13;2.15;;;17.00;99.90;;;;;;5044431;28;20068;-64
2023/08/02 08:41:30;;;;;;;5.13;2.10;;;17.00;99.90;;;;;;5044140;28;20137;-64
2023/08/02 08:43:57;;;;;;;7.82;2.58;;;17.00;99.90;;;;;;5043749;28;20045;-64
2023/08/02 08:46:24;;;;;;;8.32;2.42;;;16.90;99.90;;;;;;5027381;28;20261;-64
2023/08/02 08:48:50;;;;;;;6.85;2.40;;;16.80;99.90;;;;;;5044089;28;20045;-63
2023/08/02 08:51:17;;;;;;;7.45;2.83;;;16.90;99.90;;;;;;5043848;28;20389;-64
2023/08/02 08:53:44;;;;;;;7.68;2.33;;;16.80;99.90;;;;;;5038993;28;20407;-63
2023/08/02 08:56:11;;;;;;;7.05;2.47;;;16.70;99.90;;;;;;5061670;28;20041;-64
2023/08/02 08:58:38;;;;;;;8.77;2.58;;;16.60;99.90;;;;;;5010719;28;21014;-64
2023/08/02 09:01:05;;;;;;;8.40;2.70;;;16.60;99.90;;;;;;5045797;28;20709;-64
2023/08/02 09:03:32;;;;;;;6.70;2.55;;;16.50;99.90;;;;;;5063114;28;20041;-64
2023/08/02 09:06:00;;;;;;;7.70;3.00;;;16.40;99.90;;;;;;5063056;28;20445;-65
2023/08/02 09:08:26;;;;;;;9.52;3.80;;;16.30;99.90;;;;;;5046921;28;20474;-64
2023/08/02 09:10:55;;;;;;;9.85;4.30;;;16.20;99.90;;;;;;5060891;28;20037;-64
2023/08/02 09:13:21;;;;;;;10.90;5.15;;;16.10;99.90;;;;;;5046398;28;20429;-64
2023/08/02 09:16:11;;;;;;;15.07;5.85;;;16.10;99.90;;;;;;5052493;28;20085;-64
2023/08/02 09:18:42;;;;;;;11.48;6.00;;;16.00;99.90;;;;;;5062871;28;20045;-65
2023/08/02 09:21:11;;;;;;;12.07;6.43;;;15.90;99.90;;;;;;5063655;28;20053;-65
2023/08/02 09:23:36;;;;;;;14.00;6.90;;;15.80;99.90;;;;;;5063242;28;20048;-65
2023/08/02 09:26:20;;;;;;;15.13;6.65;;;15.60;99.90;;;;;;5015994;28;20049;-65
2023/08/02 09:29:07;;;;;;;11.70;5.57;;;15.60;99.90;;;;;;5062622;28;20308;-65
2023/08/02 09:31:35;;;;;;;7.93;3.55;;;15.50;99.90;;;;;;5046450;28;20881;-64
2023/08/02 09:34:01;;;;;;;9.52;5.10;;;15.20;99.90;;;;;;5062819;28;20045;-66
2023/08/02 09:36:32;;;;;;;9.93;5.15;;;15.10;99.90;;;;;;5053200;28;20475;-65
2023/08/02 09:39:10;;;;;;;7.97;5.65;;;15.20;99.90;;;;;;5065807;28;20149;-65
2023/08/02 09:41:36;;;;;;;11.65;6.10;;;15.20;99.90;;;;;;5022411;28;20912;-65
2023/08/02 09:44:02;;;;;;;10.48;5.80;;;15.10;99.90;;;;;;5030182;28;20083;-65
2023/08/02 09:46:30;;;;;;;15.95;7.10;;;15.30;99.90;;;;;;5046933;28;20895;-65
2023/08/02 09:48:56;;;;;;;15.45;7.43;;;15.40;99.90;;;;;;5065746;28;20547;-66
2023/08/02 09:51:40;;;;;;;12.35;7.28;;;15.20;99.90;;;;;;5048369;28;20567;-65
2023/08/02 09:54:06;;;;;;;16.48;7.55;;;15.20;99.90;;;;;;5049156;28;20131;-64
2023/08/02 09:56:35;;;;;;;11.10;6.68;;;15.10;99.90;;;;;;5066020;28;20395;-65
2023/08/02 09:59:01;;;;;;;11.00;6.03;;;15.50;99.90;;;;;;5065772;28;20055;-64
2023/08/02 10:01:29;;;;;;;13.18;6.05;;;15.30;99.90;;;;;;5065944;28;20098;-65
2023/08/02 10:03:58;;;;;;;14.23;5.90;;;15.40;99.90;;;;;;5058607;28;20041;-66
2023/08/02 10:06:29;;;;;;;15.68;6.70;;;15.20;99.90;;;;;;5046620;28;20571;-65
2023/08/02 10:09:04;;;;;;;14.68;7.10;;;15.70;99.90;;;;;;5065489;28;20873;-64
2023/08/02 10:11:53;;;;;;;10.88;6.93;;;15.40;99.90;;;;;;5048155;28;20049;-65
2023/08/02 10:14:19;;;;;;;13.70;8.15;;;15.90;99.90;;;;;;5049506;28;20281;-65
2023/08/02 10:16:46;;;;;;;13.07;8.43;;;16.00;99.90;;;;;;5032595;28;20848;-66
2023/08/02 10:19:12;;;;;;;15.30;8.95;;;16.20;99.90;;;;;;5065494;28;20086;-65
2023/08/02 10:21:39;;;;;;;15.60;9.05;;;16.00;99.90;;;;;;5032148;28;20545;-65
2023/08/02 10:24:07;;;;;;;9.52;7.47;;;16.00;99.90;;;;;;5058919;28;20095;-65
2023/08/02 10:26:33;;;;;;;16.48;9.18;;;16.50;99.90;;;;;;5045971;28;20133;-64
2023/08/02 10:29:01;;;;;;;17.88;9.05;;;16.60;99.90;;;;;;5046838;28;20484;-65
2023/08/02 10:31:27;;;;;;;17.30;8.13;;;16.50;99.90;;;;;;5048093;28;20401;-63
2023/08/02 10:33:53;;;;;;;13.90;8.05;;;16.30;99.90;;;;;;5031615;28;20119;-65
2023/08/02 10:36:18;;;;;;;11.35;6.78;;;16.70;99.90;;;;;;5048423;28;20055;-65
2023/08/02 10:38:47;;;;;;;8.18;5.70;;;16.60;99.90;;;;;;5053727;28;20152;-64
2023/08/02 10:41:15;;;;;;;12.15;7.63;;;16.10;99.90;;;;;;5046273;28;20045;-64
2023/08/02 10:43:53;;;;;;;11.65;6.63;;;16.20;99.90;;;;;;5048681;28;20566;-65
2023/08/02 10:46:25;;;;;;;16.35;7.85;;;16.00;99.90;;;;;;5025978;28;20644;-65
2023/08/02 10:48:51;;;;;;;10.80;6.70;;;16.20;99.90;;;;;;5045702;28;20052;-65
2023/08/02 10:51:38;;;;;;;15.52;8.32;;;15.90;99.90;;;;;;5064508;28;20275;-65
2023/08/02 10:54:25;;;;;;;15.98;8.57;;;16.20;99.90;;;;;;5064489;28;20080;-65
2023/08/02 10:56:51;;;;;;;14.98;8.15;;;16.30;99.90;;;;;;5064896;28;20799;-65
2023/08/02 10:59:17;;;;;;;14.43;8.18;;;16.40;99.90;;;;;;5031511;28;20125;-65
2023/08/02 11:02:08;;;;;;;15.70;7.88;;;16.50;99.90;;;;;;5047567;28;20048;-66
2023/08/02 11:04:37;;;;;;;13.55;6.38;;;16.40;99.90;;;;;;5045674;28;20268;-65
2023/08/02 11:07:14;;;;;;;12.30;5.95;;;16.40;99.90;;;;;;5063654;28;20527;-66
2023/08/02 11:09:40;;;;;;;7.28;3.58;;;16.10;99.90;;;;;;5029279;28;20076;-66
2023/08/02 11:12:14;;;;;;;11.13;5.22;;;16.70;99.90;;;;;;5029050;28;20047;-66
2023/08/02 11:14:43;;;;;;;7.75;5.15;;;16.20;99.90;;;;;;5045633;28;20049;-65
2023/08/02 11:17:09;;;;;;;11.77;6.47;;;16.30;99.90;;;;;;5064176;28;20115;-65
2023/08/02 11:19:36;;;;;;;7.75;4.68;;;16.20;99.90;;;;;;5064976;28;20068;-66
2023/08/02 11:22:02;;;;;;;7.90;4.25;;;16.70;99.90;;;;;;5056794;28;20285;-65
2023/08/02 11:24:28;;;;;;;13.73;6.32;;;16.80;99.90;;;;;;5012396;28;20053;-66
2023/08/02 11:26:54;;;;;;;9.95;5.93;;;16.30;99.90;;;;;;5028662;28;20372;-65
2023/08/02 11:29:21;;;;;;;11.23;6.05;;;16.70;99.90;;;;;;5044892;28;20124;-65
2023/08/02 11:31:58;;;;;;;9.15;5.05;;;16.80;99.90;;;;;;5044909;28;20584;-65
2023/08/02 11:34:24;;;;;;;14.20;6.50;;;17.00;99.90;;;;;;5064229;28;20128;-64
2023/08/02 11:36:50;;;;;;;15.48;7.53;;;17.00;99.90;;;;;;5031855;28;20095;-64
2023/08/02 11:39:20;;;;;;;12.40;6.35;;;17.10;99.90;;;;;;5063535;28;20033;-65
2023/08/02 11:42:02;;;;;;;15.20;6.90;;;17.10;99.90;;;;;;5046959;28;20045;-65
2023/08/02 11:44:27;;;;;;;15.90;7.22;;;16.40;99.90;;;;;;5053460;28;20436;-65
2023/08/02 11:46:54;;;;;;;10.20;4.28;;;17.00;99.90;;;;;;5060020;28;20042;-65
2023/08/02 11:49:20;;;;;;;8.25;4.13;;;17.10;99.90;;;;;;5063278;28;20103;-65
2023/08/02 11:51:46;;;;;;;7.60;4.22;;;17.00;99.90;;;;;;5047550;28;20049;-65
2023/08/02 11:54:12;;;;;;;7.82;3.90;;;17.00;99.90;;;;;;5047221;28;20655;-64
2023/08/02 11:56:38;;;;;;;7.20;3.08;;;16.70;99.90;;;;;;5046853;28;20267;-65
2023/08/02 11:59:07;;;;;;;8.98;3.83;;;16.30;99.90;;;;;;5032946;28;20132;-64
2023/08/02 12:01:32;;;;;;;6.60;2.80;;;16.80;99.90;;;;;;5063276;28;20056;-64
2023/08/02 12:04:03;;;;;;;9.07;3.70;;;16.20;99.90;;;;;;5025932;28;20668;-64
2023/08/02 12:06:50;;;;;;;9.75;5.88;;;16.30;99.90;;;;;;5063590;28;20069;-65
2023/08/02 12:09:17;;;;;;;5.70;4.07;;;16.90;99.90;;;;;;5014140;28;20491;-64
2023/08/02 12:11:44;;;;;;;6.68;3.78;;;16.20;99.90;;;;;;5063472;28;20114;-65
2023/08/02 12:14:10;;;;;;;12.18;5.82;;;16.80;99.90;;;;;;5063837;28;20421;-65
2023/08/02 12:16:40;;;;;;;8.05;6.22;;;16.90;99.90;;;;;;5063778;28;20669;-65
2023/08/02 12:19:05;;;;;;;9.88;8.45;;;16.70;99.90;;;;;;5033952;28;20399;-65
2023/08/02 12:21:31;;;;;;;10.43;7.82;;;16.50;99.90;;;;;;5044811;28;20037;-65
2023/08/02 12:23:57;;;;;;;6.70;6.00;;;16.50;99.90;;;;;;5044438;28;20499;-65
2023/08/02 12:26:35;;;;;;;8.43;7.72;;;16.90;99.90;;;;;;5044430;28;20147;-65
2023/08/02 12:29:02;;;;;;;8.80;8.05;;;16.70;99.90;;;;;;5046577;28;20045;-64
2023/08/02 12:31:39;;;;;;;11.43;10.48;;;17.60;99.90;;;;;;5063288;28;20342;-65
2023/08/02 12:34:05;;;;;;;7.55;6.85;;;17.20;99.90;;;;;;5044524;28;20056;-64
2023/08/02 12:36:31;;;;;;;4.03;3.00;;;17.20;99.90;;;;;;5043658;28;20053;-65
2023/08/02 12:38:57;;;;;;;2.25;2.05;;;18.00;99.90;;;;;;5043663;28;20048;-63
2023/08/02 12:41:28;;;;;;;2.10;1.90;;;17.70;99.90;;;;;;5010711;28;20148;-63